createdAt,value
2019-04-11T00:01:56.316Z,24.37
2019-04-11T00:04:26.949Z,26.73
2019-04-11T00:06:58.675Z,23.40
2019-04-11T00:09:30.433Z,21.93
2019-04-11T00:12:02.053Z,23.40
2019-04-11T00:14:32.766Z,26.37
2019-04-11T00:17:03.718Z,22.90
2019-04-11T00:19:35.704Z,25.20
2019-04-11T00:22:06.526Z,26.00
2019-04-11T00:24:37.214Z,24.47
2019-04-11T00:27:08.762Z,25.07
2019-04-11T00:29:40.629Z,27.93
2019-04-11T00:32:12.289Z,23.83
2019-04-11T00:34:43.048Z,25.00
2019-04-11T00:37:13.714Z,23.17
2019-04-11T00:39:44.358Z,25.93
2019-04-11T00:42:14.902Z,23.53
2019-04-11T00:44:45.727Z,25.60
2019-04-11T00:47:17.157Z,22.70
2019-04-11T00:49:48.479Z,25.47
2019-04-11T00:52:19.194Z,25.40
2019-04-11T00:54:49.813Z,25.33
2019-04-11T00:57:21.050Z,22.87
2019-04-11T00:59:52.813Z,22.33
2019-04-11T01:02:23.480Z,24.47
2019-04-11T01:04:54.109Z,26.60
2019-04-11T01:07:24.991Z,21.30
2019-04-11T01:09:56.632Z,26.37
2019-04-11T01:12:27.585Z,24.90
2019-04-11T01:14:58.095Z,23.67
2019-04-11T01:17:29.529Z,27.37
2019-04-11T01:20:00.299Z,25.93
2019-04-11T01:22:31.950Z,26.13
2019-04-11T01:25:02.545Z,28.13
2019-04-11T01:27:34.765Z,24.17
2019-04-11T01:30:11.711Z,25.63
2019-04-11T01:32:42.427Z,24.70
2019-04-11T01:35:13.119Z,22.73
2019-04-11T01:37:44.006Z,22.87
2019-04-11T01:40:15.802Z,22.50
2019-04-11T01:42:47.139Z,22.70
2019-04-11T01:45:19.471Z,22.73
2019-04-11T01:48:03.985Z,26.53
2019-04-11T01:50:36.946Z,27.53
2019-04-11T01:53:08.832Z,21.77
2019-04-11T01:55:40.775Z,23.83
2019-04-11T01:58:14.141Z,22.80
2019-04-11T02:00:52.863Z,27.63
2019-04-11T02:03:25.428Z,25.23
2019-04-11T02:05:57.094Z,23.60
2019-04-11T02:08:28.211Z,21.07
2019-04-11T02:10:59.331Z,21.90
2019-04-11T02:13:30.093Z,24.73
2019-04-11T02:16:01.412Z,25.73
2019-04-11T02:18:32.213Z,27.67
2019-04-11T02:21:03.228Z,23.03
2019-04-11T02:23:51.121Z,20.73
2019-04-11T02:26:27.212Z,22.80
2019-04-11T02:28:57.932Z,20.90
2019-04-11T02:31:30.440Z,20.57
2019-04-11T02:34:02.394Z,21.73
2019-04-11T02:36:35.713Z,21.37
2019-04-11T02:39:14.965Z,22.27
2019-04-11T02:41:44.345Z,22.33
2019-04-11T02:44:31.990Z,21.73
2019-04-11T02:46:54.462Z,24.67
2019-04-11T02:49:21.288Z,23.80
2019-04-11T02:51:53.440Z,23.77
2019-04-11T02:54:26.308Z,25.23
2019-04-11T02:56:59.965Z,26.30
2019-04-11T02:59:31.203Z,24.30
2019-04-11T03:02:04.498Z,23.80
2019-04-11T03:04:35.027Z,22.00
2019-04-11T03:07:05.982Z,23.40
2019-04-11T03:09:37.428Z,20.00
2019-04-11T03:12:09.435Z,22.37
2019-04-11T03:15:01.065Z,20.93
2019-04-11T03:17:34.123Z,22.07
2019-04-11T03:20:15.520Z,23.23
2019-04-11T03:22:40.645Z,22.70
2019-04-11T03:25:11.735Z,23.73
2019-04-11T03:27:43.310Z,19.83
2019-04-11T03:30:20.186Z,24.33
2019-04-11T03:33:42.954Z,23.27
2019-04-11T03:36:07.683Z,25.60
2019-04-11T03:38:12.543Z,23.93
2019-04-11T03:40:43.159Z,23.33
2019-04-11T03:43:11.175Z,27.47
2019-04-11T03:45:50.089Z,24.17
2019-04-11T03:48:18.042Z,21.03
2019-04-11T03:50:38.198Z,27.60
2019-04-11T03:53:10.928Z,22.07
2019-04-11T03:55:41.480Z,27.60
2019-04-11T03:58:13.233Z,23.77
2019-04-11T04:00:44.742Z,23.50
2019-04-11T04:03:18.308Z,21.97
2019-04-11T04:05:50.650Z,21.13
2019-04-11T04:08:22.472Z,20.53
2019-04-11T04:11:08.663Z,20.90
2019-04-11T04:13:42.706Z,26.27
2019-04-11T04:16:26.079Z,21.13
2019-04-11T04:18:54.910Z,22.47
2019-04-11T04:21:35.223Z,23.17
2019-04-11T04:24:08.660Z,24.37
2019-04-11T04:26:41.143Z,25.00
2019-04-11T04:29:12.015Z,25.50
2019-04-11T04:31:42.683Z,26.70
2019-04-11T04:34:13.314Z,27.83
2019-04-11T04:36:44.299Z,25.27
2019-04-11T04:39:15.456Z,25.93
2019-04-11T04:41:59.003Z,21.40
2019-04-11T04:44:24.166Z,24.57
2019-04-11T04:47:06.448Z,24.07
2019-04-11T04:49:28.193Z,22.87
2019-04-11T04:51:59.587Z,27.27
2019-04-11T04:54:30.827Z,23.27
2019-04-11T04:57:02.953Z,26.93
2019-04-11T04:59:34.052Z,22.80
2019-04-11T05:02:08.322Z,23.90
2019-04-11T05:04:40.371Z,27.87
2019-04-11T05:07:11.722Z,25.60
2019-04-11T05:09:42.706Z,24.20
2019-04-11T05:12:16.095Z,23.20
2019-04-11T05:14:47.823Z,26.00
2019-04-11T05:17:19.261Z,24.77
2019-04-11T05:19:50.915Z,25.30
2019-04-11T05:22:22.471Z,28.03
2019-04-11T05:24:54.220Z,25.33
2019-04-11T05:27:26.096Z,26.53
2019-04-11T05:29:56.681Z,25.97
2019-04-11T05:32:47.212Z,22.27
2019-04-11T05:35:20.995Z,23.77
2019-04-11T05:37:53.606Z,22.33
2019-04-11T05:40:26.250Z,27.43
2019-04-11T05:42:57.608Z,25.00
2019-04-11T05:45:28.224Z,25.50
2019-04-11T05:48:01.027Z,25.53
2019-04-11T05:50:36.015Z,23.03
2019-04-11T05:53:07.414Z,25.47
2019-04-11T05:55:41.359Z,25.20
2019-04-11T05:58:13.922Z,24.40
2019-04-11T06:01:11.015Z,23.33
2019-04-11T06:03:43.184Z,28.37
2019-04-11T06:06:16.355Z,24.67
2019-04-11T06:08:48.251Z,25.67
2019-04-11T06:11:24.127Z,28.53
2019-04-11T06:14:09.269Z,28.57
2019-04-11T06:16:47.270Z,30.00
2019-04-11T06:19:33.589Z,26.00
2019-04-11T06:22:06.660Z,24.50
2019-04-11T06:24:42.609Z,24.27
2019-04-11T06:27:15.401Z,26.23
2019-04-11T06:29:57.029Z,28.23
2019-04-11T06:32:45.916Z,26.60
2019-04-11T06:35:28.188Z,26.93
2019-04-11T06:41:30.588Z,30.50
2019-04-11T06:44:09.116Z,27.57
2019-04-11T06:46:54.864Z,26.33
2019-04-11T06:49:24.671Z,25.73
2019-04-11T06:52:09.028Z,27.43
2019-04-11T06:54:43.470Z,27.23
2019-04-11T06:57:26.212Z,25.17
2019-04-11T06:59:58.753Z,26.53
2019-04-11T07:02:32.159Z,20.57
2019-04-11T07:05:04.949Z,23.67
2019-04-11T07:07:37.618Z,26.50
2019-04-11T07:10:09.497Z,30.43
2019-04-11T07:12:42.784Z,27.87
2019-04-11T07:15:15.737Z,26.93
2019-04-11T07:18:07.073Z,27.93
2019-04-11T07:20:41.413Z,30.63
2019-04-11T07:23:32.946Z,29.60
2019-04-11T07:26:05.353Z,27.77
2019-04-11T07:28:44.032Z,27.17
2019-04-11T07:31:32.798Z,27.30
2019-04-11T07:34:08.745Z,25.07
2019-04-11T07:36:58.398Z,29.23
2019-04-11T07:39:47.339Z,23.97
2019-04-11T07:42:34.227Z,25.23
2019-04-11T07:45:13.030Z,26.30
2019-04-11T07:47:48.877Z,30.53
2019-04-11T07:50:19.884Z,27.03
2019-04-11T07:52:53.742Z,27.20
2019-04-11T07:55:25.800Z,24.73
2019-04-11T07:58:21.954Z,27.00
2019-04-11T08:01:03.714Z,27.90
2019-04-11T08:03:49.181Z,28.83
2019-04-11T08:06:42.599Z,26.30
2019-04-11T08:09:34.073Z,23.60
2019-04-11T08:12:18.272Z,26.33
2019-04-11T08:15:09.046Z,27.73
2019-04-11T08:17:42.914Z,28.73
2019-04-11T08:20:31.286Z,27.43
2019-04-11T08:23:03.677Z,29.60
2019-04-11T08:25:52.205Z,30.83
2019-04-11T08:28:22.982Z,30.67
2019-04-11T08:31:16.170Z,23.37
2019-04-11T08:33:55.048Z,30.13
2019-04-11T08:36:33.763Z,30.90
2019-04-11T08:39:08.895Z,26.20
2019-04-11T08:41:50.155Z,28.83
2019-04-11T08:44:20.789Z,28.83
2019-04-11T08:46:53.932Z,23.47
2019-04-11T08:49:29.072Z,25.40
2019-04-11T08:52:00.958Z,25.37
2019-04-11T08:54:50.170Z,26.07
2019-04-11T08:57:31.939Z,28.97
2019-04-11T09:00:20.616Z,24.00
2019-04-11T09:02:53.504Z,25.50
2019-04-11T09:05:29.129Z,29.93
2019-04-11T09:08:02.382Z,27.67
2019-04-11T09:10:50.788Z,24.73
2019-04-11T09:13:27.075Z,21.47
2019-04-11T09:16:05.604Z,27.57
2019-04-11T09:18:38.464Z,23.57
2019-04-11T09:21:28.537Z,27.97
2019-04-11T09:24:04.177Z,25.40
2019-04-11T09:26:52.272Z,20.23
2019-04-11T09:29:24.513Z,23.63
2019-04-11T09:32:09.734Z,20.37
2019-04-11T09:34:46.013Z,21.73
2019-04-11T09:37:19.146Z,22.50
2019-04-11T09:39:55.234Z,20.63
2019-04-11T09:44:49.244Z,27.23
2019-04-11T09:47:22.169Z,25.07
2019-04-11T09:50:12.084Z,29.10
2019-04-11T09:52:45.291Z,24.23
2019-04-11T09:55:21.289Z,25.73
2019-04-11T09:57:54.631Z,25.30
2019-04-11T10:00:43.256Z,26.70
2019-04-11T10:03:15.476Z,23.93
2019-04-11T10:05:51.623Z,20.87
2019-04-11T10:08:37.289Z,26.50
2019-04-11T10:11:10.554Z,23.37
2019-04-11T10:14:01.757Z,20.47
2019-04-11T10:16:37.096Z,23.57
2019-04-11T10:19:15.839Z,23.87
2019-04-11T10:22:03.308Z,23.73
2019-04-11T10:24:52.153Z,24.20
2019-04-11T10:27:40.883Z,23.47
2019-04-11T10:30:29.466Z,24.70
2019-04-11T10:33:20.460Z,23.43
2019-04-11T10:36:11.102Z,27.63
2019-04-11T10:38:41.809Z,27.10
2019-04-11T10:41:26.030Z,25.37
2019-04-11T10:43:57.227Z,27.43
2019-04-11T10:46:33.496Z,27.33
2019-04-11T10:49:05.767Z,26.93
2019-04-11T10:51:47.684Z,29.40
2019-04-11T10:54:18.381Z,28.33
2019-04-11T10:56:51.586Z,25.77
2019-04-11T10:59:26.800Z,25.87
2019-04-11T11:02:04.699Z,25.67
2019-04-11T11:04:36.818Z,28.93
2019-04-11T11:07:10.185Z,29.37
2019-04-11T11:09:46.328Z,27.73
2019-04-11T11:12:29.528Z,29.33
2019-04-11T11:15:07.696Z,24.70
2019-04-11T11:18:27.871Z,28.00
2019-04-11T11:20:50.204Z,27.13
2019-04-11T11:23:35.537Z,30.43
2019-04-11T11:26:12.468Z,25.63
2019-04-11T11:28:51.236Z,23.57
2019-04-11T11:31:32.343Z,26.83
2019-04-11T11:34:02.958Z,28.60
2019-04-11T11:36:50.457Z,25.13
2019-04-11T11:39:39.431Z,28.63
2019-04-11T11:42:28.780Z,24.77
2019-04-11T11:45:03.804Z,27.13
2019-04-11T11:47:49.040Z,28.63
2019-04-11T11:50:23.296Z,29.73
2019-04-11T11:53:13.141Z,29.20
2019-04-11T11:55:45.401Z,27.20
2019-04-11T11:58:33.811Z,28.17
2019-04-11T12:01:08.993Z,25.43
2019-04-11T12:04:00.190Z,24.27
2019-04-11T12:06:29.197Z,25.40
2019-04-11T12:09:02.457Z,24.47
2019-04-11T12:11:35.140Z,23.50
2019-04-11T12:14:24.894Z,27.97
2019-04-11T12:17:10.154Z,21.00
2019-04-11T12:19:50.698Z,26.53
2019-04-11T12:22:15.997Z,26.03
2019-04-11T12:24:48.407Z,22.23
2019-04-11T12:27:21.636Z,23.27
2019-04-11T12:30:05.636Z,23.93
2019-04-11T12:32:37.264Z,25.60
2019-04-11T12:35:17.326Z,20.83
2019-04-11T12:38:02.250Z,25.67
2019-04-11T12:40:40.411Z,26.07
2019-04-11T12:43:13.208Z,18.33
2019-04-11T12:45:52.524Z,22.93
2019-04-11T12:48:24.812Z,24.80
2019-04-11T12:50:57.166Z,25.00
2019-04-11T12:53:27.831Z,27.90
2019-04-11T12:56:05.893Z,25.60
2019-04-11T12:58:45.539Z,22.37
2019-04-11T13:01:37.948Z,21.60
2019-04-11T13:04:13.473Z,25.10
2019-04-11T13:07:02.013Z,25.57
2019-04-11T13:09:46.885Z,23.57
2019-04-11T13:12:19.141Z,21.93
2019-04-11T13:15:04.517Z,19.53
2019-04-11T13:17:36.556Z,23.57
2019-04-11T13:20:26.158Z,24.30
2019-04-11T13:22:58.274Z,21.27
2019-04-11T13:25:36.447Z,26.47
2019-04-11T13:28:08.584Z,20.47
2019-04-11T13:30:43.446Z,23.23
2019-04-11T13:33:16.413Z,18.03
2019-04-11T13:36:04.774Z,23.13
2019-04-11T13:38:38.477Z,20.17
2019-04-11T13:41:27.075Z,19.83
2019-04-11T13:43:57.871Z,19.50
2019-04-11T13:49:42.819Z,20.10
2019-04-11T13:52:14.947Z,18.07
2019-04-11T13:54:47.233Z,20.40
2019-04-11T13:57:19.415Z,20.50
2019-04-11T14:00:08.487Z,19.23
2019-04-11T14:02:51.416Z,18.00
2019-04-11T14:05:19.371Z,17.93
2019-04-11T14:07:55.528Z,21.30
2019-04-11T14:10:26.109Z,19.27
2019-04-11T14:12:58.474Z,18.13
2019-04-11T14:15:30.071Z,21.00
2019-04-11T14:18:17.242Z,21.57
2019-04-11T14:20:52.526Z,21.67
2019-04-11T14:23:24.627Z,20.97
2019-04-11T14:25:56.951Z,22.33
2019-04-11T14:28:32.055Z,18.97
2019-04-11T14:31:04.205Z,19.27
2019-04-11T14:33:39.158Z,24.83
2019-04-11T14:36:11.296Z,20.20
2019-04-11T14:38:48.035Z,18.73
2019-04-11T14:41:21.151Z,21.83
2019-04-11T14:43:53.278Z,21.53
2019-04-11T14:46:45.050Z,20.70
2019-04-11T14:49:16.306Z,21.57
2019-04-11T14:52:06.935Z,20.07
2019-04-11T14:54:39.041Z,20.10
2019-04-11T14:57:11.163Z,21.03
2019-04-11T14:59:43.383Z,19.97
2019-04-11T15:02:22.013Z,21.07
2019-04-11T15:05:13.942Z,20.33
2019-04-11T15:07:56.132Z,23.03
2019-04-11T15:10:45.756Z,17.73
2019-04-11T15:13:18.473Z,21.87
2019-04-11T15:16:11.177Z,20.87
2019-04-11T15:18:55.600Z,18.47
2019-04-11T15:21:46.257Z,22.80
2019-04-11T15:24:18.923Z,23.60
2019-04-11T15:26:53.703Z,22.80
2019-04-11T15:29:26.503Z,21.90
2019-04-11T15:32:01.715Z,19.80
2019-04-11T15:34:34.769Z,21.00
2019-04-11T15:40:13.022Z,19.03
2019-04-11T15:42:55.038Z,21.30
2019-04-11T15:45:29.971Z,18.73
2019-04-11T15:48:17.805Z,20.30
2019-04-11T15:51:07.076Z,21.07
2019-04-11T15:53:48.727Z,21.57
2019-04-11T15:56:23.911Z,18.43
2019-04-11T15:59:08.256Z,23.33
2019-04-11T16:01:43.374Z,18.30
2019-04-11T16:04:15.978Z,19.30
2019-04-11T16:06:55.597Z,17.73
2019-04-11T16:09:24.590Z,19.17
2019-04-11T16:11:56.784Z,17.30
2019-04-11T16:14:27.402Z,16.13
2019-04-11T16:17:00.537Z,17.43
2019-04-11T16:19:47.593Z,21.70
2019-04-11T16:22:36.564Z,20.10
2019-04-11T16:25:13.920Z,20.00
2019-04-11T16:27:49.093Z,22.67
2019-04-11T16:30:20.565Z,22.77
2019-04-11T16:33:08.041Z,21.03
2019-04-11T16:35:52.370Z,22.77
2019-04-11T16:38:41.532Z,21.07
2019-04-11T16:41:30.058Z,24.00
2019-04-11T16:44:05.407Z,20.10
2019-04-11T16:46:55.737Z,23.47
2019-04-11T16:49:26.617Z,22.00
2019-04-11T16:51:57.750Z,19.93
2019-04-11T16:54:28.291Z,24.20
2019-04-11T16:56:58.918Z,21.43
2019-04-11T16:59:29.544Z,21.80
2019-04-11T17:02:00.978Z,25.00
2019-04-11T17:04:32.407Z,19.27
2019-04-11T17:07:04.575Z,20.07
2019-04-11T17:09:36.663Z,19.77
2019-04-11T17:12:07.760Z,20.60
2019-04-11T17:14:38.311Z,20.20
2019-04-11T17:17:15.232Z,24.53
2019-04-11T17:19:44.455Z,21.30
2019-04-11T17:22:16.821Z,20.37
2019-04-11T17:24:48.024Z,22.20
2019-04-11T17:27:20.900Z,20.80
2019-04-11T17:29:54.588Z,22.43
2019-04-11T17:32:25.848Z,20.43
2019-04-11T17:34:57.314Z,19.47
2019-04-11T17:37:27.724Z,20.83
2019-04-11T17:40:06.831Z,20.03
2019-04-11T17:42:36.961Z,22.23
2019-04-11T17:45:08.124Z,21.27
2019-04-11T17:47:38.705Z,23.90
2019-04-11T17:50:09.703Z,21.63
2019-04-11T17:52:40.471Z,22.67
2019-04-11T17:55:11.125Z,22.20
2019-04-11T17:57:42.567Z,20.67
2019-04-11T18:00:16.633Z,20.40
2019-04-11T18:02:47.272Z,19.43
2019-04-11T18:05:17.738Z,23.90
2019-04-11T18:07:49.934Z,17.03
2019-04-11T18:10:20.731Z,19.13
2019-04-11T18:12:51.373Z,19.77
2019-04-11T18:15:21.955Z,21.70
2019-04-11T18:17:53.654Z,20.63
2019-04-11T18:20:24.178Z,20.73
2019-04-11T18:22:54.764Z,18.13
2019-04-11T18:25:29.135Z,21.77
2019-04-11T18:27:59.784Z,18.50
2019-04-11T18:30:30.381Z,21.23
2019-04-11T18:33:00.999Z,21.00
2019-04-11T18:35:32.028Z,17.47
2019-04-11T18:38:03.286Z,21.13
2019-04-11T18:40:33.877Z,25.10
2019-04-11T18:43:04.560Z,17.03
2019-04-11T18:45:35.150Z,18.57
2019-04-11T18:48:06.386Z,17.30
2019-04-11T18:56:30.528Z,22.10
2019-04-11T18:59:03.686Z,19.40
2019-04-11T19:01:34.325Z,21.13
2019-04-11T19:04:05.114Z,19.73
2019-04-11T19:06:36.167Z,20.07
2019-04-11T19:09:13.836Z,19.60
2019-04-11T19:11:45.953Z,26.27
2019-04-11T19:14:16.572Z,16.90
2019-04-11T19:16:47.136Z,20.07
2019-04-11T19:19:19.317Z,25.93
2019-04-11T19:21:51.097Z,18.43
2019-04-11T19:24:22.246Z,20.10
2019-04-11T19:26:52.781Z,18.63
2019-04-11T19:29:25.036Z,17.57
2019-04-11T19:31:56.125Z,20.07
2019-04-11T19:34:26.758Z,21.10
2019-04-11T19:36:58.339Z,17.03
2019-04-11T19:39:28.991Z,20.67
2019-04-11T19:41:59.521Z,19.73
2019-04-11T19:44:30.923Z,16.03
2019-04-11T19:47:01.362Z,18.03
2019-04-11T19:49:32.100Z,16.90
2019-04-11T19:52:05.525Z,20.03
2019-04-11T19:54:36.120Z,17.47
2019-04-11T19:57:07.814Z,17.33
2019-04-11T19:59:38.427Z,18.07
2019-04-11T20:02:09.032Z,15.10
2019-04-11T20:04:39.474Z,19.87
2019-04-11T20:07:10.031Z,15.23
2019-04-11T20:09:40.573Z,15.33
2019-04-11T20:12:10.972Z,12.30
2019-04-11T20:14:41.621Z,12.73
2019-04-11T20:17:12.140Z,14.37
2019-04-11T20:19:43.427Z,14.40
2019-04-11T20:22:13.835Z,16.10
2019-04-11T20:24:46.831Z,14.70
2019-04-11T20:27:20.059Z,14.17
2019-04-11T20:29:52.111Z,13.20
2019-04-11T20:32:22.410Z,12.70
2019-04-11T20:34:53.650Z,15.47
2019-04-11T20:37:24.597Z,12.83
2019-04-11T20:39:55.209Z,11.17
2019-04-11T20:42:25.589Z,12.33
2019-04-11T20:44:58.321Z,12.20
2019-04-11T20:47:29.642Z,12.37
2019-04-11T20:50:07.456Z,8.83
2019-04-11T20:52:35.032Z,9.73
2019-04-11T20:55:09.776Z,10.53
2019-04-11T20:57:41.042Z,11.37
2019-04-11T21:00:12.987Z,11.00
2019-04-11T21:02:43.427Z,9.13
2019-04-11T21:05:14.033Z,9.87
2019-04-11T21:07:44.451Z,9.40
2019-04-11T21:10:15.015Z,8.57
2019-04-11T21:13:21.008Z,9.93
2019-04-11T21:16:00.688Z,9.10
2019-04-11T21:18:31.135Z,8.40
2019-04-11T21:21:03.005Z,7.27
2019-04-11T21:23:33.372Z,9.33
2019-04-11T21:26:03.852Z,8.27
2019-04-11T21:28:34.255Z,9.13
2019-04-11T21:31:04.744Z,9.07
2019-04-11T21:33:35.323Z,10.47
2019-04-11T21:36:05.981Z,7.57
2019-04-11T21:38:36.349Z,7.87
2019-04-11T21:41:06.888Z,9.67
2019-04-11T21:43:37.990Z,6.67
2019-04-11T21:46:08.406Z,7.13
2019-04-11T21:48:39.018Z,7.87
2019-04-11T21:51:11.378Z,6.73
2019-04-11T21:53:45.165Z,5.90
2019-04-11T21:56:15.928Z,9.33
2019-04-11T21:58:49.953Z,7.97
2019-04-11T22:01:34.160Z,6.77
2019-04-11T22:04:04.759Z,7.87
2019-04-11T22:06:36.521Z,7.87
2019-04-11T22:09:09.170Z,7.33
2019-04-11T22:11:39.778Z,6.83
2019-04-11T22:14:27.367Z,6.93
2019-04-11T22:16:58.022Z,8.60
2019-04-11T22:19:28.461Z,5.40
2019-04-11T22:21:59.910Z,6.73
2019-04-11T22:24:30.284Z,6.43
2019-04-11T22:27:03.540Z,5.93
2019-04-11T22:29:34.002Z,8.77
2019-04-11T22:32:04.709Z,5.93
2019-04-11T22:34:39.292Z,7.40
2019-04-11T22:37:19.689Z,7.47
2019-04-11T22:39:50.046Z,6.07
2019-04-11T22:42:20.682Z,4.63
2019-04-11T22:44:51.064Z,5.80
2019-04-11T22:47:21.540Z,5.10
2019-04-11T22:49:51.987Z,5.53
2019-04-11T22:52:24.188Z,5.23
2019-04-11T22:54:54.594Z,6.83
2019-04-11T22:57:25.144Z,6.10
2019-04-11T22:59:55.510Z,7.07
2019-04-11T23:02:30.501Z,9.17
2019-04-11T23:05:00.903Z,6.20
2019-04-11T23:07:31.281Z,8.10
2019-04-11T23:10:01.795Z,7.57
2019-04-11T23:12:35.570Z,8.37
2019-04-11T23:15:07.826Z,8.77
2019-04-11T23:17:38.336Z,6.57
2019-04-11T23:20:11.892Z,8.17
2019-04-11T23:22:43.413Z,6.87
2019-04-11T23:25:13.862Z,8.37
2019-04-11T23:27:44.254Z,6.63
2019-04-11T23:30:15.971Z,7.83
2019-04-11T23:32:50.866Z,5.10
2019-04-11T23:35:21.199Z,7.23
2019-04-11T23:37:52.429Z,5.60
2019-04-11T23:40:23.127Z,8.00
2019-04-11T23:42:53.510Z,6.23
2019-04-11T23:45:25.686Z,6.57
2019-04-11T23:47:56.234Z,5.97
2019-04-11T23:50:26.700Z,9.50
2019-04-11T23:52:58.078Z,8.57
2019-04-11T23:55:30.775Z,7.00
2019-04-11T23:58:02.252Z,6.30
